sensor_id;sensor_type;location;lat;lon;timestamp;temperature;humidity
25170;DHT22;13129;48.012;10.352;2022-12-18T04:32:28;-5.40;99.90
25170;DHT22;13129;48.012;10.352;2022-12-18T04:34:54;-5.30;99.90
25170;DHT22;13129;48.012;10.352;2022-12-18T04:37:20;-5.40;99.90
25170;DHT22;13129;48.012;10.352;2022-12-18T04:39:45;-5.40;99.90
25170;DHT22;13129;48.012;10.352;2022-12-18T04:42:11;-5.30;99.90
25170;DHT22;13129;48.012;10.352;2022-12-18T04:44:37;-5.30;99.90
25170;DHT22;13129;48.012;10.352;2022-12-18T04:47:02;-5.30;99.90
25170;DHT22;13129;48.012;10.352;2022-12-18T04:49:28;-5.30;99.90
25170;DHT22;13129;48.012;10.352;2022-12-18T04:51:54;-5.30;99.90
25170;DHT22;13129;48.012;10.352;2022-12-18T04:54:20;-5.30;99.90
25170;DHT22;13129;48.012;10.352;2022-12-18T04:56:45;-5.40;99.90
25170;DHT22;13129;48.012;10.352;2022-12-18T04:59:11;-5.40;99.90
25170;DHT22;13129;48.012;10.352;2022-12-18T05:01:37;-5.40;99.90
25170;DHT22;13129;48.012;10.352;2022-12-18T05:04:02;-5.50;99.90
25170;DHT22;13129;48.012;10.352;2022-12-18T05:06:28;-5.50;99.90
25170;DHT22;13129;48.012;10.352;2022-12-18T05:08:55;-5.40;99.90
25170;DHT22;13129;48.012;10.352;2022-12-18T05:11:20;-5.40;99.90
25170;DHT22;13129;48.012;10.352;2022-12-18T05:13:46;-5.50;99.90
25170;DHT22;13129;48.012;10.352;2022-12-18T05:16:13;-5.50;99.90
25170;DHT22;13129;48.012;10.352;2022-12-18T05:18:39;-5.40;99.90
25170;DHT22;13129;48.012;10.352;2022-12-18T05:21:05;-5.50;99.90
25170;DHT22;13129;48.012;10.352;2022-12-18T05:23:31;-5.40;99.90
25170;DHT22;13129;48.012;10.352;2022-12-18T05:25:59;-5.40;99.90
25170;DHT22;13129;48.012;10.352;2022-12-18T05:28:26;-5.40;99.90
25170;DHT22;13129;48.012;10.352;2022-12-18T05:30:54;-5.40;99.90
25170;DHT22;13129;48.012;10.352;2022-12-18T05:33:21;-5.40;99.90
25170;DHT22;13129;48.012;10.352;2022-12-18T05:35:55;-5.30;99.90
25170;DHT22;13129;48.012;10.352;2022-12-18T05:38:22;-5.30;99.90
25170;DHT22;13129;48.012;10.352;2022-12-18T05:40:49;-5.30;99.90
25170;DHT22;13129;48.012;10.352;2022-12-18T05:43:15;-5.30;99.90
25170;DHT22;13129;48.012;10.352;2022-12-18T05:45:41;-5.30;99.90
25170;DHT22;13129;48.012;10.352;2022-12-18T05:48:07;-5.40;99.90
25170;DHT22;13129;48.012;10.352;2022-12-18T05:50:38;-5.50;99.90
25170;DHT22;13129;48.012;10.352;2022-12-18T05:53:05;-5.50;99.90
25170;DHT22;13129;48.012;10.352;2022-12-18T05:55:35;-5.60;99.90
25170;DHT22;13129;48.012;10.352;2022-12-18T05:58:03;-5.60;99.90
25170;DHT22;13129;48.012;10.352;2022-12-18T06:00:29;-5.60;99.90
25170;DHT22;13129;48.012;10.352;2022-12-18T06:02:55;-5.70;99.90
25170;DHT22;13129;48.012;10.352;2022-12-18T06:05:21;-5.70;99.90
25170;DHT22;13129;48.012;10.352;2022-12-18T06:07:50;-5.70;99.90
25170;DHT22;13129;48.012;10.352;2022-12-18T06:10:16;-5.70;99.90
25170;DHT22;13129;48.012;10.352;2022-12-18T06:15:45;-5.80;99.90
25170;DHT22;13129;48.012;10.352;2022-12-18T06:24:54;-5.70;99.90
25170;DHT22;13129;48.012;10.352;2022-12-18T06:27:57;-5.80;99.90
25170;DHT22;13129;48.012;10.352;2022-12-18T06:30:54;-5.80;99.90
25170;DHT22;13129;48.012;10.352;2022-12-18T06:33:26;-5.70;99.90
25170;DHT22;13129;48.012;10.352;2022-12-18T06:43:13;-5.70;99.90
25170;DHT22;13129;48.012;10.352;2022-12-18T06:46:21;-5.70;99.90
25170;DHT22;13129;48.012;10.352;2022-12-18T07:03:42;-5.70;99.90
25170;DHT22;13129;48.012;10.352;2022-12-18T07:07:02;-5.70;99.90
25170;DHT22;13129;48.012;10.352;2022-12-18T07:09:59;-5.70;99.90
25170;DHT22;13129;48.012;10.352;2022-12-18T07:23:41;-5.60;99.90
25170;DHT22;13129;48.012;10.352;2022-12-18T07:29:50;-5.60;99.90
25170;DHT22;13129;48.012;10.352;2022-12-18T07:32:22;-5.60;99.90
25170;DHT22;13129;48.012;10.352;2022-12-18T07:38:12;-5.70;99.90
25170;DHT22;13129;48.012;10.352;2022-12-18T07:51:03;-5.50;99.90
25170;DHT22;13129;48.012;10.352;2022-12-18T07:53:30;-5.40;99.90
25170;DHT22;13129;48.012;10.352;2022-12-18T07:55:57;-5.30;99.90
25170;DHT22;13129;48.012;10.352;2022-12-18T07:58:23;-5.30;99.90
25170;DHT22;13129;48.012;10.352;2022-12-18T08:00:48;-5.20;99.90
25170;DHT22;13129;48.012;10.352;2022-12-18T08:03:14;-5.20;99.90
25170;DHT22;13129;48.012;10.352;2022-12-18T08:05:39;-5.20;99.90
25170;DHT22;13129;48.012;10.352;2022-12-18T08:08:05;-5.20;99.90
25170;DHT22;13129;48.012;10.352;2022-12-18T08:10:31;-5.20;99.90
25170;DHT22;13129;48.012;10.352;2022-12-18T08:12:56;-5.10;99.90
25170;DHT22;13129;48.012;10.352;2022-12-18T08:15:22;-5.20;99.90
25170;DHT22;13129;48.012;10.352;2022-12-18T08:17:48;-5.10;99.90
25170;DHT22;13129;48.012;10.352;2022-12-18T08:20:13;-5.10;99.90
25170;DHT22;13129;48.012;10.352;2022-12-18T08:22:41;-5.00;99.90
25170;DHT22;13129;48.012;10.352;2022-12-18T08:25:07;-5.00;99.90
25170;DHT22;13129;48.012;10.352;2022-12-18T08:27:33;-5.00;99.90
25170;DHT22;13129;48.012;10.352;2022-12-18T08:29:59;-5.00;99.90
25170;DHT22;13129;48.012;10.352;2022-12-18T08:32:25;-5.00;99.90
25170;DHT22;13129;48.012;10.352;2022-12-18T08:34:52;-5.00;99.90
25170;DHT22;13129;48.012;10.352;2022-12-18T08:37:18;-4.90;99.90
25170;DHT22;13129;48.012;10.352;2022-12-18T08:39:43;-4.90;99.90
25170;DHT22;13129;48.012;10.352;2022-12-18T08:42:10;-4.80;99.90
25170;DHT22;13129;48.012;10.352;2022-12-18T08:44:54;-4.70;99.90
25170;DHT22;13129;48.012;10.352;2022-12-18T08:47:19;-4.50;99.90
25170;DHT22;13129;48.012;10.352;2022-12-18T08:49:45;-4.40;99.90
25170;DHT22;13129;48.012;10.352;2022-12-18T08:52:11;-4.30;99.90
25170;DHT22;13129;48.012;10.352;2022-12-18T08:54:36;-4.10;99.90
25170;DHT22;13129;48.012;10.352;2022-12-18T08:57:02;-4.20;99.90
25170;DHT22;13129;48.012;10.352;2022-12-18T08:59:28;-4.20;99.90
25170;DHT22;13129;48.012;10.352;2022-12-18T09:01:54;-4.20;99.90
25170;DHT22;13129;48.012;10.352;2022-12-18T09:04:20;-4.20;99.90
25170;DHT22;13129;48.012;10.352;2022-12-18T09:06:46;-4.20;99.90
25170;DHT22;13129;48.012;10.352;2022-12-18T09:09:12;-4.10;99.90
25170;DHT22;13129;48.012;10.352;2022-12-18T09:11:38;-4.10;99.90
25170;DHT22;13129;48.012;10.352;2022-12-18T09:14:03;-4.10;99.90
25170;DHT22;13129;48.012;10.352;2022-12-18T09:16:29;-4.00;99.90
25170;DHT22;13129;48.012;10.352;2022-12-18T09:18:57;-3.90;99.90
25170;DHT22;13129;48.012;10.352;2022-12-18T09:21:28;-4.00;99.90
25170;DHT22;13129;48.012;10.352;2022-12-18T09:23:55;-4.00;99.90
25170;DHT22;13129;48.012;10.352;2022-12-18T09:26:22;-4.10;99.90
25170;DHT22;13129;48.012;10.352;2022-12-18T09:28:49;-4.10;99.90
25170;DHT22;13129;48.012;10.352;2022-12-18T09:31:16;-4.10;99.90
25170;DHT22;13129;48.012;10.352;2022-12-18T09:33:42;-4.10;99.90
25170;DHT22;13129;48.012;10.352;2022-12-18T09:36:10;-4.10;99.90
25170;DHT22;13129;48.012;10.352;2022-12-18T09:38:37;-3.90;99.90
25170;DHT22;13129;48.012;10.352;2022-12-18T09:41:14;-3.80;99.90
25170;DHT22;13129;48.012;10.352;2022-12-18T09:43:48;-3.70;99.90
25170;DHT22;13129;48.012;10.352;2022-12-18T09:46:26;-3.70;99.90
25170;DHT22;13129;48.012;10.352;2022-12-18T09:48:55;-3.60;99.90
25170;DHT22;13129;48.012;10.352;2022-12-18T09:51:52;-3.60;99.90
25170;DHT22;13129;48.012;10.352;2022-12-18T09:54:30;-3.70;99.90
25170;DHT22;13129;48.012;10.352;2022-12-18T09:56:58;-3.60;99.90
25170;DHT22;13129;48.012;10.352;2022-12-18T09:59:29;-3.60;99.90
25170;DHT22;13129;48.012;10.352;2022-12-18T10:01:57;-3.60;99.90
25170;DHT22;13129;48.012;10.352;2022-12-18T10:04:24;-3.40;99.90
25170;DHT22;13129;48.012;10.352;2022-12-18T10:06:58;-3.30;99.90
25170;DHT22;13129;48.012;10.352;2022-12-18T10:10:07;-3.40;99.90
25170;DHT22;13129;48.012;10.352;2022-12-18T10:15:30;-3.40;99.90
25170;DHT22;13129;48.012;10.352;2022-12-18T10:23:53;-3.20;99.90
25170;DHT22;13129;48.012;10.352;2022-12-18T10:26:11;-3.10;99.90
25170;DHT22;13129;48.012;10.352;2022-12-18T10:29:01;-3.10;99.90
25170;DHT22;13129;48.012;10.352;2022-12-18T10:44:46;-2.20;99.90
25170;DHT22;13129;48.012;10.352;2022-12-18T10:47:18;-2.10;99.90
25170;DHT22;13129;48.012;10.352;2022-12-18T10:49:50;-1.90;99.90
25170;DHT22;13129;48.012;10.352;2022-12-18T10:52:23;-2.10;99.90
25170;DHT22;13129;48.012;10.352;2022-12-18T10:54:53;-1.80;99.90
25170;DHT22;13129;48.012;10.352;2022-12-18T10:59:56;-1.90;99.90
25170;DHT22;13129;48.012;10.352;2022-12-18T11:02:37;-1.70;99.90
25170;DHT22;13129;48.012;10.352;2022-12-18T11:07:50;-1.40;99.90
25170;DHT22;13129;48.012;10.352;2022-12-18T11:10:18;-1.30;99.90
25170;DHT22;13129;48.012;10.352;2022-12-18T11:12:45;-1.30;99.90
25170;DHT22;13129;48.012;10.352;2022-12-18T11:15:21;-1.40;99.90
25170;DHT22;13129;48.012;10.352;2022-12-18T11:17:49;-1.30;99.90
25170;DHT22;13129;48.012;10.352;2022-12-18T11:20:23;-1.20;99.90
25170;DHT22;13129;48.012;10.352;2022-12-18T11:23:03;-1.30;99.90
25170;DHT22;13129;48.012;10.352;2022-12-18T11:25:32;-1.60;99.90
25170;DHT22;13129;48.012;10.352;2022-12-18T11:28:25;-1.60;99.90
25170;DHT22;13129;48.012;10.352;2022-12-18T11:31:26;-1.60;99.90
25170;DHT22;13129;48.012;10.352;2022-12-18T11:33:58;-1.70;99.90
25170;DHT22;13129;48.012;10.352;2022-12-18T11:36:29;-1.60;99.90
25170;DHT22;13129;48.012;10.352;2022-12-18T11:38:59;-1.40;99.90
25170;DHT22;13129;48.012;10.352;2022-12-18T11:41:30;-1.30;99.90
25170;DHT22;13129;48.012;10.352;2022-12-18T11:44:35;-1.20;99.90
25170;DHT22;13129;48.012;10.352;2022-12-18T11:49:49;-1.20;99.90
25170;DHT22;13129;48.012;10.352;2022-12-18T11:52:34;-1.20;99.90
25170;DHT22;13129;48.012;10.352;2022-12-18T11:55:14;-1.20;99.90
25170;DHT22;13129;48.012;10.352;2022-12-18T11:58:33;-1.30;99.90
25170;DHT22;13129;48.012;10.352;2022-12-18T12:01:02;-1.20;99.90
25170;DHT22;13129;48.012;10.352;2022-12-18T12:09:10;-1.50;99.90
25170;DHT22;13129;48.012;10.352;2022-12-18T12:17:12;-1.00;99.90
25170;DHT22;13129;48.012;10.352;2022-12-18T12:20:16;-1.20;99.90
25170;DHT22;13129;48.012;10.352;2022-12-18T12:25:21;-1.00;99.90
25170;DHT22;13129;48.012;10.352;2022-12-18T12:28:28;-0.90;99.90
25170;DHT22;13129;48.012;10.352;2022-12-18T12:34:02;-1.20;99.90
25170;DHT22;13129;48.012;10.352;2022-12-18T12:36:53;-1.40;99.90
25170;DHT22;13129;48.012;10.352;2022-12-18T12:39:27;-1.30;99.90
25170;DHT22;13129;48.012;10.352;2022-12-18T12:41:55;-1.30;99.90
25170;DHT22;13129;48.012;10.352;2022-12-18T12:44:48;-1.50;99.90
25170;DHT22;13129;48.012;10.352;2022-12-18T12:47:23;-1.50;99.90
25170;DHT22;13129;48.012;10.352;2022-12-18T12:49:50;-1.60;99.90
25170;DHT22;13129;48.012;10.352;2022-12-18T12:54:55;-1.70;99.90
25170;DHT22;13129;48.012;10.352;2022-12-18T12:57:25;-1.60;99.90
25170;DHT22;13129;48.012;10.352;2022-12-18T13:00:13;-1.70;99.90
25170;DHT22;13129;48.012;10.352;2022-12-18T13:05:36;-1.80;99.90
25170;DHT22;13129;48.012;10.352;2022-12-18T13:08:06;-2.00;99.90
25170;DHT22;13129;48.012;10.352;2022-12-18T13:13:16;-2.00;99.90
25170;DHT22;13129;48.012;10.352;2022-12-18T13:16:03;-2.10;99.90
25170;DHT22;13129;48.012;10.352;2022-12-18T13:18:29;-2.20;99.90
25170;DHT22;13129;48.012;10.352;2022-12-18T13:31:00;-2.20;99.90
25170;DHT22;13129;48.012;10.352;2022-12-18T13:36:31;-2.40;99.90
25170;DHT22;13129;48.012;10.352;2022-12-18T13:39:23;-2.40;99.90
25170;DHT22;13129;48.012;10.352;2022-12-18T13:44:35;-2.50;99.90
25170;DHT22;13129;48.012;10.352;2022-12-18T13:47:03;-2.60;99.90
25170;DHT22;13129;48.012;10.352;2022-12-18T13:49:39;-2.70;99.90
25170;DHT22;13129;48.012;10.352;2022-12-18T13:52:35;-2.70;99.90
25170;DHT22;13129;48.012;10.352;2022-12-18T13:55:06;-2.90;99.90
25170;DHT22;13129;48.012;10.352;2022-12-18T13:57:37;-3.00;99.90
25170;DHT22;13129;48.012;10.352;2022-12-18T14:02:48;-3.30;99.90
25170;DHT22;13129;48.012;10.352;2022-12-18T14:05:27;-3.50;99.90
25170;DHT22;13129;48.012;10.352;2022-12-18T14:07:54;-3.60;99.90
25170;DHT22;13129;48.012;10.352;2022-12-18T14:10:21;-3.50;99.90
25170;DHT22;13129;48.012;10.352;2022-12-18T14:12:48;-3.60;99.90
25170;DHT22;13129;48.012;10.352;2022-12-18T14:18:01;-3.80;99.90
25170;DHT22;13129;48.012;10.352;2022-12-18T14:20:31;-3.90;99.90
25170;DHT22;13129;48.012;10.352;2022-12-18T14:22:57;-3.90;99.90
25170;DHT22;13129;48.012;10.352;2022-12-18T14:25:29;-3.90;99.90
25170;DHT22;13129;48.012;10.352;2022-12-18T14:30:38;-4.20;99.90
25170;DHT22;13129;48.012;10.352;2022-12-18T14:33:16;-4.20;99.90
25170;DHT22;13129;48.012;10.352;2022-12-18T14:36:01;-4.30;99.90
25170;DHT22;13129;48.012;10.352;2022-12-18T14:43:21;-4.50;99.90
25170;DHT22;13129;48.012;10.352;2022-12-18T14:45:48;-4.50;99.90
25170;DHT22;13129;48.012;10.352;2022-12-18T14:50:45;-4.70;99.90
25170;DHT22;13129;48.012;10.352;2022-12-18T14:53:22;-4.80;99.90
25170;DHT22;13129;48.012;10.352;2022-12-18T14:55:50;-4.90;99.90
25170;DHT22;13129;48.012;10.352;2022-12-18T14:58:17;-4.90;99.90
25170;DHT22;13129;48.012;10.352;2022-12-18T15:00:43;-4.90;99.90
25170;DHT22;13129;48.012;10.352;2022-12-18T15:03:09;-4.90;99.90
25170;DHT22;13129;48.012;10.352;2022-12-18T15:05:35;-4.70;99.90
25170;DHT22;13129;48.012;10.352;2022-12-18T15:08:02;-4.90;99.90
25170;DHT22;13129;48.012;10.352;2022-12-18T15:10:30;-5.00;99.90
25170;DHT22;13129;48.012;10.352;2022-12-18T15:20:41;-5.30;99.90
25170;DHT22;13129;48.012;10.352;2022-12-18T15:23:19;-5.40;99.90
25170;DHT22;13129;48.012;10.352;2022-12-18T15:26:03;-5.50;99.90
25170;DHT22;13129;48.012;10.352;2022-12-18T15:31:32;-5.60;99.90
25170;DHT22;13129;48.012;10.352;2022-12-18T15:34:19;-5.70;99.90
25170;DHT22;13129;48.012;10.352;2022-12-18T15:36:57;-5.70;99.90
25170;DHT22;13129;48.012;10.352;2022-12-18T15:39:55;-5.70;99.90
25170;DHT22;13129;48.012;10.352;2022-12-18T15:42:45;-5.80;99.90
25170;DHT22;13129;48.012;10.352;2022-12-18T15:45:30;-5.80;99.90
25170;DHT22;13129;48.012;10.352;2022-12-18T15:48:31;-5.70;99.90
25170;DHT22;13129;48.012;10.352;2022-12-18T15:51:04;-5.80;99.90
25170;DHT22;13129;48.012;10.352;2022-12-18T15:53:32;-5.80;99.90
25170;DHT22;13129;48.012;10.352;2022-12-18T15:55:59;-5.90;99.90
25170;DHT22;13129;48.012;10.352;2022-12-18T15:58:43;-5.90;99.90
25170;DHT22;13129;48.012;10.352;2022-12-18T16:01:09;-6.00;99.90
25170;DHT22;13129;48.012;10.352;2022-12-18T16:03:36;-6.00;99.90
25170;DHT22;13129;48.012;10.352;2022-12-18T16:06:02;-6.00;99.90
25170;DHT22;13129;48.012;10.352;2022-12-18T16:08:29;-6.00;99.90
25170;DHT22;13129;48.012;10.352;2022-12-18T16:10:58;-6.00;99.90
25170;DHT22;13129;48.012;10.352;2022-12-18T16:13:24;-6.10;99.90
25170;DHT22;13129;48.012;10.352;2022-12-18T16:16:01;-6.20;99.90
25170;DHT22;13129;48.012;10.352;2022-12-18T16:18:45;-6.30;99.90
25170;DHT22;13129;48.012;10.352;2022-12-18T16:21:25;-6.40;99.90
25170;DHT22;13129;48.012;10.352;2022-12-18T16:24:20;-6.40;99.90
25170;DHT22;13129;48.012;10.352;2022-12-18T16:26:50;-6.60;99.90
25170;DHT22;13129;48.012;10.352;2022-12-18T16:29:20;-6.70;99.90
25170;DHT22;13129;48.012;10.352;2022-12-18T16:31:50;-6.70;99.90
25170;DHT22;13129;48.012;10.352;2022-12-18T16:34:26;-6.60;99.90
25170;DHT22;13129;48.012;10.352;2022-12-18T16:36:58;-6.40;99.90
25170;DHT22;13129;48.012;10.352;2022-12-18T16:39:25;-6.30;99.90
25170;DHT22;13129;48.012;10.352;2022-12-18T16:41:51;-6.20;99.90
25170;DHT22;13129;48.012;10.352;2022-12-18T16:44:20;-6.10;99.90
25170;DHT22;13129;48.012;10.352;2022-12-18T16:46:49;-6.10;99.90
25170;DHT22;13129;48.012;10.352;2022-12-18T17:03:32;-6.90;99.90
25170;DHT22;13129;48.012;10.352;2022-12-18T17:09:29;-7.10;99.90
25170;DHT22;13129;48.012;10.352;2022-12-18T17:15:02;-7.10;99.90
25170;DHT22;13129;48.012;10.352;2022-12-18T17:18:00;-7.10;99.90
25170;DHT22;13129;48.012;10.352;2022-12-18T17:20:37;-7.10;99.90
25170;DHT22;13129;48.012;10.352;2022-12-18T17:23:03;-7.00;99.90
25170;DHT22;13129;48.012;10.352;2022-12-18T17:25:28;-7.20;99.90
25170;DHT22;13129;48.012;10.352;2022-12-18T17:27:54;-7.20;99.90
25170;DHT22;13129;48.012;10.352;2022-12-18T17:30:22;-7.30;99.90
25170;DHT22;13129;48.012;10.352;2022-12-18T17:32:48;-7.30;99.90
25170;DHT22;13129;48.012;10.352;2022-12-18T17:35:14;-7.30;99.90
25170;DHT22;13129;48.012;10.352;2022-12-18T17:37:40;-7.30;99.90
25170;DHT22;13129;48.012;10.352;2022-12-18T17:40:09;-7.10;99.90
25170;DHT22;13129;48.012;10.352;2022-12-18T17:42:35;-7.00;99.90
25170;DHT22;13129;48.012;10.352;2022-12-18T17:45:02;-6.90;99.90
25170;DHT22;13129;48.012;10.352;2022-12-18T17:47:28;-6.90;99.90
25170;DHT22;13129;48.012;10.352;2022-12-18T17:49:53;-6.90;99.90
25170;DHT22;13129;48.012;10.352;2022-12-18T17:52:19;-6.90;99.90
25170;DHT22;13129;48.012;10.352;2022-12-18T17:54:45;-6.90;99.90
25170;DHT22;13129;48.012;10.352;2022-12-18T17:57:10;-6.80;99.90
25170;DHT22;13129;48.012;10.352;2022-12-18T17:59:36;-6.70;99.90
25170;DHT22;13129;48.012;10.352;2022-12-18T18:02:02;-6.60;99.90
25170;DHT22;13129;48.012;10.352;2022-12-18T18:04:27;-6.60;99.90
25170;DHT22;13129;48.012;10.352;2022-12-18T18:06:53;-6.70;99.90
25170;DHT22;13129;48.012;10.352;2022-12-18T18:09:19;-6.70;99.90
25170;DHT22;13129;48.012;10.352;2022-12-18T18:11:45;-6.80;99.90
25170;DHT22;13129;48.012;10.352;2022-12-18T18:14:29;-6.90;99.90
25170;DHT22;13129;48.012;10.352;2022-12-18T18:16:55;-7.10;99.90
25170;DHT22;13129;48.012;10.352;2022-12-18T18:19:22;-7.20;99.90
25170;DHT22;13129;48.012;10.352;2022-12-18T18:21:50;-7.30;99.90
25170;DHT22;13129;48.012;10.352;2022-12-18T18:24:18;-7.30;99.90
25170;DHT22;13129;48.012;10.352;2022-12-18T18:26:44;-7.20;99.90
25170;DHT22;13129;48.012;10.352;2022-12-18T18:29:22;-7.40;99.90
25170;DHT22;13129;48.012;10.352;2022-12-18T18:31:48;-7.40;99.90
25170;DHT22;13129;48.012;10.352;2022-12-18T18:34:20;-7.40;99.90
25170;DHT22;13129;48.012;10.352;2022-12-18T18:36:46;-7.10;99.90
25170;DHT22;13129;48.012;10.352;2022-12-18T18:39:12;-7.10;99.90
25170;DHT22;13129;48.012;10.352;2022-12-18T18:41:39;-7.10;99.90
25170;DHT22;13129;48.012;10.352;2022-12-18T18:44:05;-7.20;99.90
25170;DHT22;13129;48.012;10.352;2022-12-18T18:46:31;-7.40;99.90
25170;DHT22;13129;48.012;10.352;2022-12-18T18:48:57;-7.50;99.90
25170;DHT22;13129;48.012;10.352;2022-12-18T18:51:23;-7.60;99.90
25170;DHT22;13129;48.012;10.352;2022-12-18T18:53:51;-7.50;99.90
25170;DHT22;13129;48.012;10.352;2022-12-18T18:56:22;-7.40;99.90
25170;DHT22;13129;48.012;10.352;2022-12-18T18:58:48;-7.30;99.90
25170;DHT22;13129;48.012;10.352;2022-12-18T19:01:16;-7.20;99.90
25170;DHT22;13129;48.012;10.352;2022-12-18T19:03:43;-7.10;99.90
25170;DHT22;13129;48.012;10.352;2022-12-18T19:06:16;-7.10;99.90
25170;DHT22;13129;48.012;10.352;2022-12-18T19:08:42;-7.00;99.90
25170;DHT22;13129;48.012;10.352;2022-12-18T19:11:09;-7.00;99.90
25170;DHT22;13129;48.012;10.352;2022-12-18T19:13:54;-6.90;99.90
25170;DHT22;13129;48.012;10.352;2022-12-18T19:16:20;-6.80;99.90
25170;DHT22;13129;48.012;10.352;2022-12-18T19:18:45;-6.70;99.90
25170;DHT22;13129;48.012;10.352;2022-12-18T19:21:11;-6.60;99.90
25170;DHT22;13129;48.012;10.352;2022-12-18T19:23:37;-6.50;99.90
25170;DHT22;13129;48.012;10.352;2022-12-18T19:26:04;-6.50;99.90
25170;DHT22;13129;48.012;10.352;2022-12-18T19:28:30;-6.60;99.90
25170;DHT22;13129;48.012;10.352;2022-12-18T19:31:01;-6.60;99.90
25170;DHT22;13129;48.012;10.352;2022-12-18T19:33:29;-6.60;99.90
25170;DHT22;13129;48.012;10.352;2022-12-18T19:35:55;-6.60;99.90
25170;DHT22;13129;48.012;10.352;2022-12-18T19:38:21;-6.60;99.90
25170;DHT22;13129;48.012;10.352;2022-12-18T19:40:47;-6.60;99.90
25170;DHT22;13129;48.012;10.352;2022-12-18T19:43:13;-6.60;99.90
25170;DHT22;13129;48.012;10.352;2022-12-18T19:45:40;-6.40;99.90
25170;DHT22;13129;48.012;10.352;2022-12-18T19:48:05;-6.40;99.90
25170;DHT22;13129;48.012;10.352;2022-12-18T19:50:32;-6.40;99.90
25170;DHT22;13129;48.012;10.352;2022-12-18T19:52:58;-6.40;99.90
25170;DHT22;13129;48.012;10.352;2022-12-18T19:55:24;-6.40;99.90
25170;DHT22;13129;48.012;10.352;2022-12-18T19:57:49;-6.40;99.90
25170;DHT22;13129;48.012;10.352;2022-12-18T20:00:15;-6.40;99.90
25170;DHT22;13129;48.012;10.352;2022-12-18T20:02:41;-6.40;99.90
25170;DHT22;13129;48.012;10.352;2022-12-18T20:05:11;-6.30;99.90
25170;DHT22;13129;48.012;10.352;2022-12-18T20:07:38;-6.30;99.90
25170;DHT22;13129;48.012;10.352;2022-12-18T20:10:06;-6.30;99.90
25170;DHT22;13129;48.012;10.352;2022-12-18T20:12:33;-6.20;99.90
25170;DHT22;13129;48.012;10.352;2022-12-18T20:14:59;-6.20;99.90
25170;DHT22;13129;48.012;10.352;2022-12-18T20:17:25;-6.10;99.90
25170;DHT22;13129;48.012;10.352;2022-12-18T20:19:51;-6.10;99.90
25170;DHT22;13129;48.012;10.352;2022-12-18T20:22:17;-6.10;99.90
25170;DHT22;13129;48.012;10.352;2022-12-18T20:24:43;-6.10;99.90
25170;DHT22;13129;48.012;10.352;2022-12-18T20:27:09;-6.10;99.90
25170;DHT22;13129;48.012;10.352;2022-12-18T20:29:35;-6.10;99.90
25170;DHT22;13129;48.012;10.352;2022-12-18T20:32:00;-6.10;99.90
25170;DHT22;13129;48.012;10.352;2022-12-18T20:34:26;-6.00;99.90
25170;DHT22;13129;48.012;10.352;2022-12-18T20:36:52;-6.00;99.90
25170;DHT22;13129;48.012;10.352;2022-12-18T20:39:18;-6.00;99.90
25170;DHT22;13129;48.012;10.352;2022-12-18T20:41:44;-5.90;99.90
25170;DHT22;13129;48.012;10.352;2022-12-18T20:44:15;-6.00;99.90
25170;DHT22;13129;48.012;10.352;2022-12-18T20:46:42;-6.00;99.90
25170;DHT22;13129;48.012;10.352;2022-12-18T20:49:08;-6.00;99.90
25170;DHT22;13129;48.012;10.352;2022-12-18T20:51:35;-6.00;99.90
25170;DHT22;13129;48.012;10.352;2022-12-18T20:54:01;-6.00;99.90
25170;DHT22;13129;48.012;10.352;2022-12-18T20:56:28;-6.00;99.90
25170;DHT22;13129;48.012;10.352;2022-12-18T20:58:58;-6.00;99.90
25170;DHT22;13129;48.012;10.352;2022-12-18T21:01:26;-6.00;99.90
25170;DHT22;13129;48.012;10.352;2022-12-18T21:03:52;-6.00;99.90
25170;DHT22;13129;48.012;10.352;2022-12-18T21:06:21;-6.00;99.90
25170;DHT22;13129;48.012;10.352;2022-12-18T21:08:47;-6.00;99.90
25170;DHT22;13129;48.012;10.352;2022-12-18T21:11:24;-6.00;99.90
25170;DHT22;13129;48.012;10.352;2022-12-18T21:14:15;-6.00;99.90
25170;DHT22;13129;48.012;10.352;2022-12-18T21:16:41;-6.10;99.90
25170;DHT22;13129;48.012;10.352;2022-12-18T21:19:10;-6.10;99.90
25170;DHT22;13129;48.012;10.352;2022-12-18T21:21:37;-6.20;99.90
25170;DHT22;13129;48.012;10.352;2022-12-18T21:24:05;-6.30;99.90
25170;DHT22;13129;48.012;10.352;2022-12-18T21:26:32;-6.40;99.90
25170;DHT22;13129;48.012;10.352;2022-12-18T21:29:01;-6.40;99.90
25170;DHT22;13129;48.012;10.352;2022-12-18T21:31:34;-6.50;99.90
25170;DHT22;13129;48.012;10.352;2022-12-18T21:34:01;-6.50;99.90
25170;DHT22;13129;48.012;10.352;2022-12-18T21:36:28;-6.50;99.90
25170;DHT22;13129;48.012;10.352;2022-12-18T21:38:54;-6.40;99.90
25170;DHT22;13129;48.012;10.352;2022-12-18T21:41:22;-6.30;99.90
25170;DHT22;13129;48.012;10.352;2022-12-18T21:44:06;-6.20;99.90
25170;DHT22;13129;48.012;10.352;2022-12-18T21:46:39;-6.20;99.90
25170;DHT22;13129;48.012;10.352;2022-12-18T21:49:06;-6.10;99.90
25170;DHT22;13129;48.012;10.352;2022-12-18T21:51:34;-6.00;99.90
25170;DHT22;13129;48.012;10.352;2022-12-18T21:54:00;-6.00;99.90
25170;DHT22;13129;48.012;10.352;2022-12-18T21:56:50;-5.90;99.90
25170;DHT22;13129;48.012;10.352;2022-12-18T21:59:18;-6.00;99.90
25170;DHT22;13129;48.012;10.352;2022-12-18T22:01:46;-5.90;99.90
25170;DHT22;13129;48.012;10.352;2022-12-18T22:04:12;-5.90;99.90
25170;DHT22;13129;48.012;10.352;2022-12-18T22:06:39;-5.90;99.90
25170;DHT22;13129;48.012;10.352;2022-12-18T22:09:06;-5.80;99.90
25170;DHT22;13129;48.012;10.352;2022-12-18T22:11:32;-5.70;99.90
25170;DHT22;13129;48.012;10.352;2022-12-18T22:13:57;-5.70;99.90
25170;DHT22;13129;48.012;10.352;2022-12-18T22:16:23;-5.60;99.90
25170;DHT22;13129;48.012;10.352;2022-12-18T22:18:49;-5.60;99.90
25170;DHT22;13129;48.012;10.352;2022-12-18T22:23:55;-5.60;99.90
25170;DHT22;13129;48.012;10.352;2022-12-18T22:26:22;-5.60;99.90
25170;DHT22;13129;48.012;10.352;2022-12-18T22:28:48;-5.50;99.90
25170;DHT22;13129;48.012;10.352;2022-12-18T22:31:33;-5.50;99.90
25170;DHT22;13129;48.012;10.352;2022-12-18T22:33:59;-5.40;99.90
25170;DHT22;13129;48.012;10.352;2022-12-18T22:36:25;-5.30;99.90
25170;DHT22;13129;48.012;10.352;2022-12-18T22:38:51;-5.30;99.90
25170;DHT22;13129;48.012;10.352;2022-12-18T22:41:17;-5.30;99.90
25170;DHT22;13129;48.012;10.352;2022-12-18T22:43:43;-5.40;99.90
25170;DHT22;13129;48.012;10.352;2022-12-18T22:46:15;-5.40;99.90
25170;DHT22;13129;48.012;10.352;2022-12-18T22:48:42;-5.40;99.90
25170;DHT22;13129;48.012;10.352;2022-12-18T22:51:13;-5.40;99.90
25170;DHT22;13129;48.012;10.352;2022-12-18T22:53:39;-5.50;99.90
25170;DHT22;13129;48.012;10.352;2022-12-18T22:56:05;-5.50;99.90
25170;DHT22;13129;48.012;10.352;2022-12-18T22:58:30;-5.50;99.90
25170;DHT22;13129;48.012;10.352;2022-12-18T23:00:56;-5.50;99.90
25170;DHT22;13129;48.012;10.352;2022-12-18T23:03:22;-5.40;99.90
25170;DHT22;13129;48.012;10.352;2022-12-18T23:05:47;-5.30;99.90
25170;DHT22;13129;48.012;10.352;2022-12-18T23:08:13;-5.30;99.90